sensor_id;sensor_type;location;lat;lon;timestamp;temperature;humidity
10192;DHT22;17580;50.850;4.504;2022-09-09T00:01:46;15.30;99.90
10192;DHT22;17580;50.850;4.504;2022-09-09T00:04:24;15.40;99.90
10192;DHT22;17580;50.850;4.504;2022-09-09T00:07:01;15.30;99.90
10192;DHT22;17580;50.850;4.504;2022-09-09T00:09:32;15.40;99.90
10192;DHT22;17580;50.850;4.504;2022-09-09T00:12:10;15.50;99.90
10192;DHT22;17580;50.850;4.504;2022-09-09T00:14:42;15.40;99.90
10192;DHT22;17580;50.850;4.504;2022-09-09T00:17:16;15.40;99.90
10192;DHT22;17580;50.850;4.504;2022-09-09T00:19:48;15.30;99.90
10192;DHT22;17580;50.850;4.504;2022-09-09T00:22:20;15.40;99.90
10192;DHT22;17580;50.850;4.504;2022-09-09T00:24:52;15.30;99.90
10192;DHT22;17580;50.850;4.504;2022-09-09T00:27:25;15.30;99.90
10192;DHT22;17580;50.850;4.504;2022-09-09T00:29:57;15.30;99.90
10192;DHT22;17580;50.850;4.504;2022-09-09T00:32:30;15.30;99.90
10192;DHT22;17580;50.850;4.504;2022-09-09T00:35:00;15.40;99.90
10192;DHT22;17580;50.850;4.504;2022-09-09T00:37:30;15.40;99.90
10192;DHT22;17580;50.850;4.504;2022-09-09T00:40:02;15.30;99.90
10192;DHT22;17580;50.850;4.504;2022-09-09T00:42:39;15.40;99.90
10192;DHT22;17580;50.850;4.504;2022-09-09T00:45:19;15.40;99.90
10192;DHT22;17580;50.850;4.504;2022-09-09T00:47:50;15.50;99.90
10192;DHT22;17580;50.850;4.504;2022-09-09T00:50:35;15.50;99.90
10192;DHT22;17580;50.850;4.504;2022-09-09T00:53:16;15.50;99.90
10192;DHT22;17580;50.850;4.504;2022-09-09T00:55:49;15.50;99.90
10192;DHT22;17580;50.850;4.504;2022-09-09T00:58:18;15.50;99.90
10192;DHT22;17580;50.850;4.504;2022-09-09T01:00:49;15.60;99.90
10192;DHT22;17580;50.850;4.504;2022-09-09T01:03:23;15.60;99.90
10192;DHT22;17580;50.850;4.504;2022-09-09T01:06:12;15.60;99.90
10192;DHT22;17580;50.850;4.504;2022-09-09T01:09:07;15.70;99.90
10192;DHT22;17580;50.850;4.504;2022-09-09T01:11:43;15.70;99.90
10192;DHT22;17580;50.850;4.504;2022-09-09T01:14:22;15.60;99.90
10192;DHT22;17580;50.850;4.504;2022-09-09T01:16:54;15.60;99.90
10192;DHT22;17580;50.850;4.504;2022-09-09T01:19:33;15.60;99.90
10192;DHT22;17580;50.850;4.504;2022-09-09T01:22:09;15.70;99.90
10192;DHT22;17580;50.850;4.504;2022-09-09T01:24:45;15.60;99.90
10192;DHT22;17580;50.850;4.504;2022-09-09T01:27:20;15.50;99.90
10192;DHT22;17580;50.850;4.504;2022-09-09T01:29:48;15.50;99.90
10192;DHT22;17580;50.850;4.504;2022-09-09T01:32:40;15.60;99.90
10192;DHT22;17580;50.850;4.504;2022-09-09T01:35:10;15.50;99.90
10192;DHT22;17580;50.850;4.504;2022-09-09T01:37:38;15.50;99.90
10192;DHT22;17580;50.850;4.504;2022-09-09T01:40:06;15.50;99.90
10192;DHT22;17580;50.850;4.504;2022-09-09T01:42:35;15.50;99.90
10192;DHT22;17580;50.850;4.504;2022-09-09T01:45:03;15.50;99.90
10192;DHT22;17580;50.850;4.504;2022-09-09T01:47:30;15.50;99.90
10192;DHT22;17580;50.850;4.504;2022-09-09T01:49:58;15.60;99.90
10192;DHT22;17580;50.850;4.504;2022-09-09T01:52:25;15.50;99.90
10192;DHT22;17580;50.850;4.504;2022-09-09T01:54:52;15.50;99.90
10192;DHT22;17580;50.850;4.504;2022-09-09T01:57:23;15.50;99.90
10192;DHT22;17580;50.850;4.504;2022-09-09T02:00:03;15.50;99.90
10192;DHT22;17580;50.850;4.504;2022-09-09T02:02:35;15.40;99.90
10192;DHT22;17580;50.850;4.504;2022-09-09T02:05:12;15.50;99.90
10192;DHT22;17580;50.850;4.504;2022-09-09T02:07:46;15.50;99.90
10192;DHT22;17580;50.850;4.504;2022-09-09T02:10:18;15.50;99.90
10192;DHT22;17580;50.850;4.504;2022-09-09T02:12:48;15.50;99.90
10192;DHT22;17580;50.850;4.504;2022-09-09T02:15:23;15.50;99.90
10192;DHT22;17580;50.850;4.504;2022-09-09T02:17:54;15.40;99.90
10192;DHT22;17580;50.850;4.504;2022-09-09T02:20:24;15.40;99.90
10192;DHT22;17580;50.850;4.504;2022-09-09T02:22:53;15.40;99.90
10192;DHT22;17580;50.850;4.504;2022-09-09T02:25:23;15.30;99.90
10192;DHT22;17580;50.850;4.504;2022-09-09T02:27:51;15.30;99.90
10192;DHT22;17580;50.850;4.504;2022-09-09T02:30:20;15.40;99.90
10192;DHT22;17580;50.850;4.504;2022-09-09T02:32:48;15.40;99.90
10192;DHT22;17580;50.850;4.504;2022-09-09T02:35:20;15.40;99.90
10192;DHT22;17580;50.850;4.504;2022-09-09T02:37:49;15.40;99.90
10192;DHT22;17580;50.850;4.504;2022-09-09T02:40:16;15.40;99.90
10192;DHT22;17580;50.850;4.504;2022-09-09T02:42:45;15.40;99.90
10192;DHT22;17580;50.850;4.504;2022-09-09T02:45:14;15.30;99.90
10192;DHT22;17580;50.850;4.504;2022-09-09T02:47:48;15.40;99.90
10192;DHT22;17580;50.850;4.504;2022-09-09T02:50:20;15.40;99.90
10192;DHT22;17580;50.850;4.504;2022-09-09T02:53:01;15.30;99.90
10192;DHT22;17580;50.850;4.504;2022-09-09T02:55:39;15.30;99.90
10192;DHT22;17580;50.850;4.504;2022-09-09T02:58:10;15.40;99.90
10192;DHT22;17580;50.850;4.504;2022-09-09T03:00:39;15.40;99.90
10192;DHT22;17580;50.850;4.504;2022-09-09T03:03:08;15.40;99.90
10192;DHT22;17580;50.850;4.504;2022-09-09T03:05:35;15.40;99.90
10192;DHT22;17580;50.850;4.504;2022-09-09T03:08:03;15.30;99.90
10192;DHT22;17580;50.850;4.504;2022-09-09T03:10:31;15.30;99.90
10192;DHT22;17580;50.850;4.504;2022-09-09T03:12:58;15.30;99.90
10192;DHT22;17580;50.850;4.504;2022-09-09T03:15:25;15.30;99.90
10192;DHT22;17580;50.850;4.504;2022-09-09T03:17:54;15.30;99.90
10192;DHT22;17580;50.850;4.504;2022-09-09T03:20:24;15.30;99.90
10192;DHT22;17580;50.850;4.504;2022-09-09T03:22:51;15.30;99.90
10192;DHT22;17580;50.850;4.504;2022-09-09T03:25:19;15.20;99.90
10192;DHT22;17580;50.850;4.504;2022-09-09T03:27:46;15.20;99.90
10192;DHT22;17580;50.850;4.504;2022-09-09T03:30:13;15.20;99.90
10192;DHT22;17580;50.850;4.504;2022-09-09T03:32:40;15.20;99.90
10192;DHT22;17580;50.850;4.504;2022-09-09T03:35:08;15.30;99.90
10192;DHT22;17580;50.850;4.504;2022-09-09T03:37:36;15.30;99.90
10192;DHT22;17580;50.850;4.504;2022-09-09T03:40:05;15.30;99.90
10192;DHT22;17580;50.850;4.504;2022-09-09T03:42:32;15.30;99.90
10192;DHT22;17580;50.850;4.504;2022-09-09T03:44:59;15.30;99.90
10192;DHT22;17580;50.850;4.504;2022-09-09T03:47:26;15.30;99.90
10192;DHT22;17580;50.850;4.504;2022-09-09T03:49:53;15.30;99.90
10192;DHT22;17580;50.850;4.504;2022-09-09T03:52:20;15.30;99.90
10192;DHT22;17580;50.850;4.504;2022-09-09T03:54:48;15.30;99.90
10192;DHT22;17580;50.850;4.504;2022-09-09T03:57:15;15.20;99.90
10192;DHT22;17580;50.850;4.504;2022-09-09T03:59:42;15.20;99.90
10192;DHT22;17580;50.850;4.504;2022-09-09T04:02:09;15.20;99.90
10192;DHT22;17580;50.850;4.504;2022-09-09T04:04:36;15.20;99.90
10192;DHT22;17580;50.850;4.504;2022-09-09T04:07:03;15.20;99.90
10192;DHT22;17580;50.850;4.504;2022-09-09T04:09:32;15.20;99.90
10192;DHT22;17580;50.850;4.504;2022-09-09T04:12:02;15.30;99.90
10192;DHT22;17580;50.850;4.504;2022-09-09T04:14:29;15.20;99.90
10192;DHT22;17580;50.850;4.504;2022-09-09T04:16:56;15.30;99.90
10192;DHT22;17580;50.850;4.504;2022-09-09T04:19:25;15.20;99.90
10192;DHT22;17580;50.850;4.504;2022-09-09T04:21:52;15.30;99.90
10192;DHT22;17580;50.850;4.504;2022-09-09T04:24:19;15.40;99.90
10192;DHT22;17580;50.850;4.504;2022-09-09T04:26:47;15.40;99.90
10192;DHT22;17580;50.850;4.504;2022-09-09T04:29:16;15.30;99.90
10192;DHT22;17580;50.850;4.504;2022-09-09T04:31:42;15.30;99.90
10192;DHT22;17580;50.850;4.504;2022-09-09T04:34:10;15.30;99.90
10192;DHT22;17580;50.850;4.504;2022-09-09T04:36:37;15.20;99.90
10192;DHT22;17580;50.850;4.504;2022-09-09T04:39:04;15.20;99.90
10192;DHT22;17580;50.850;4.504;2022-09-09T04:41:31;15.20;99.90
10192;DHT22;17580;50.850;4.504;2022-09-09T04:43:58;15.20;99.90
10192;DHT22;17580;50.850;4.504;2022-09-09T04:46:27;15.20;99.90
10192;DHT22;17580;50.850;4.504;2022-09-09T04:48:54;15.20;99.90
10192;DHT22;17580;50.850;4.504;2022-09-09T04:51:21;15.10;99.90
10192;DHT22;17580;50.850;4.504;2022-09-09T04:53:48;15.20;99.90
10192;DHT22;17580;50.850;4.504;2022-09-09T04:56:17;15.10;99.90
10192;DHT22;17580;50.850;4.504;2022-09-09T04:58:44;15.10;99.90
10192;DHT22;17580;50.850;4.504;2022-09-09T05:01:13;15.10;99.90
10192;DHT22;17580;50.850;4.504;2022-09-09T05:03:42;15.10;99.90
10192;DHT22;17580;50.850;4.504;2022-09-09T05:06:11;15.10;99.90
10192;DHT22;17580;50.850;4.504;2022-09-09T05:08:40;15.20;99.90
10192;DHT22;17580;50.850;4.504;2022-09-09T05:11:14;15.20;99.90
10192;DHT22;17580;50.850;4.504;2022-09-09T05:13:41;15.20;99.90
10192;DHT22;17580;50.850;4.504;2022-09-09T05:16:08;15.10;99.90
10192;DHT22;17580;50.850;4.504;2022-09-09T05:18:36;15.10;99.90
10192;DHT22;17580;50.850;4.504;2022-09-09T05:21:05;15.10;99.90
10192;DHT22;17580;50.850;4.504;2022-09-09T05:23:32;15.10;99.90
10192;DHT22;17580;50.850;4.504;2022-09-09T05:26:00;15.10;99.90
10192;DHT22;17580;50.850;4.504;2022-09-09T05:28:27;15.10;99.90
10192;DHT22;17580;50.850;4.504;2022-09-09T05:30:58;15.20;99.90
10192;DHT22;17580;50.850;4.504;2022-09-09T05:33:26;15.30;99.90
10192;DHT22;17580;50.850;4.504;2022-09-09T05:35:57;15.30;99.90
10192;DHT22;17580;50.850;4.504;2022-09-09T05:38:26;15.30;99.90
10192;DHT22;17580;50.850;4.504;2022-09-09T05:40:53;15.40;99.90
10192;DHT22;17580;50.850;4.504;2022-09-09T05:43:21;15.50;99.90
10192;DHT22;17580;50.850;4.504;2022-09-09T05:45:58;15.50;99.90
10192;DHT22;17580;50.850;4.504;2022-09-09T05:48:28;15.50;99.90
10192;DHT22;17580;50.850;4.504;2022-09-09T05:50:55;15.40;99.90
10192;DHT22;17580;50.850;4.504;2022-09-09T05:53:23;15.40;99.90
10192;DHT22;17580;50.850;4.504;2022-09-09T05:55:58;15.40;99.90
10192;DHT22;17580;50.850;4.504;2022-09-09T05:58:25;15.30;99.90
10192;DHT22;17580;50.850;4.504;2022-09-09T06:00:52;15.40;99.90
10192;DHT22;17580;50.850;4.504;2022-09-09T06:03:20;15.40;99.90
10192;DHT22;17580;50.850;4.504;2022-09-09T06:05:57;15.50;99.90
10192;DHT22;17580;50.850;4.504;2022-09-09T06:08:24;15.40;99.90
10192;DHT22;17580;50.850;4.504;2022-09-09T06:10:52;15.50;99.90
10192;DHT22;17580;50.850;4.504;2022-09-09T06:13:19;15.50;99.90
10192;DHT22;17580;50.850;4.504;2022-09-09T06:15:50;15.60;99.90
10192;DHT22;17580;50.850;4.504;2022-09-09T06:18:17;15.70;99.90
10192;DHT22;17580;50.850;4.504;2022-09-09T06:20:53;15.70;99.90
10192;DHT22;17580;50.850;4.504;2022-09-09T06:23:20;15.70;99.90
10192;DHT22;17580;50.850;4.504;2022-09-09T06:25:48;15.70;99.90
10192;DHT22;17580;50.850;4.504;2022-09-09T06:28:18;15.80;99.90
10192;DHT22;17580;50.850;4.504;2022-09-09T06:30:45;15.80;99.90
10192;DHT22;17580;50.850;4.504;2022-09-09T06:33:12;15.80;99.90
10192;DHT22;17580;50.850;4.504;2022-09-09T06:35:39;15.80;99.90
10192;DHT22;17580;50.850;4.504;2022-09-09T06:38:06;15.80;99.90
10192;DHT22;17580;50.850;4.504;2022-09-09T06:40:34;16.00;99.90
10192;DHT22;17580;50.850;4.504;2022-09-09T06:43:00;16.00;99.90
10192;DHT22;17580;50.850;4.504;2022-09-09T06:45:29;16.10;99.90
10192;DHT22;17580;50.850;4.504;2022-09-09T06:47:57;16.10;99.90
10192;DHT22;17580;50.850;4.504;2022-09-09T06:50:23;16.20;99.90
10192;DHT22;17580;50.850;4.504;2022-09-09T06:52:50;16.20;99.90
10192;DHT22;17580;50.850;4.504;2022-09-09T06:55:17;16.20;99.90
10192;DHT22;17580;50.850;4.504;2022-09-09T06:57:45;16.20;99.90
10192;DHT22;17580;50.850;4.504;2022-09-09T07:00:12;16.20;99.90
10192;DHT22;17580;50.850;4.504;2022-09-09T07:02:41;16.20;99.90
10192;DHT22;17580;50.850;4.504;2022-09-09T07:05:08;16.30;99.90
10192;DHT22;17580;50.850;4.504;2022-09-09T07:07:36;16.20;99.90
10192;DHT22;17580;50.850;4.504;2022-09-09T07:10:04;16.30;99.90
10192;DHT22;17580;50.850;4.504;2022-09-09T07:12:31;16.20;99.90
10192;DHT22;17580;50.850;4.504;2022-09-09T07:14:58;16.30;99.90
10192;DHT22;17580;50.850;4.504;2022-09-09T07:17:25;16.50;99.90
10192;DHT22;17580;50.850;4.504;2022-09-09T07:19:55;16.50;99.90
10192;DHT22;17580;50.850;4.504;2022-09-09T07:22:22;16.50;99.90
10192;DHT22;17580;50.850;4.504;2022-09-09T07:24:50;16.50;99.90
10192;DHT22;17580;50.850;4.504;2022-09-09T07:27:17;16.50;99.90
10192;DHT22;17580;50.850;4.504;2022-09-09T07:29:43;16.60;99.90
10192;DHT22;17580;50.850;4.504;2022-09-09T07:32:10;16.60;99.90
10192;DHT22;17580;50.850;4.504;2022-09-09T07:34:37;16.60;99.90
10192;DHT22;17580;50.850;4.504;2022-09-09T07:37:06;16.60;99.90
10192;DHT22;17580;50.850;4.504;2022-09-09T07:39:37;16.60;99.90
10192;DHT22;17580;50.850;4.504;2022-09-09T07:42:04;16.50;99.90
10192;DHT22;17580;50.850;4.504;2022-09-09T07:44:32;16.50;99.90
10192;DHT22;17580;50.850;4.504;2022-09-09T07:47:00;16.50;99.90
10192;DHT22;17580;50.850;4.504;2022-09-09T07:49:27;16.60;99.90
10192;DHT22;17580;50.850;4.504;2022-09-09T07:51:54;16.50;99.90
10192;DHT22;17580;50.850;4.504;2022-09-09T07:54:22;16.30;99.90
10192;DHT22;17580;50.850;4.504;2022-09-09T07:56:50;16.20;99.90
10192;DHT22;17580;50.850;4.504;2022-09-09T07:59:17;16.10;99.90
10192;DHT22;17580;50.850;4.504;2022-09-09T08:01:46;16.10;99.90
10192;DHT22;17580;50.850;4.504;2022-09-09T08:04:15;16.10;99.90
10192;DHT22;17580;50.850;4.504;2022-09-09T08:06:45;16.10;99.90
10192;DHT22;17580;50.850;4.504;2022-09-09T08:09:13;16.20;99.90
10192;DHT22;17580;50.850;4.504;2022-09-09T08:11:42;16.30;99.90
10192;DHT22;17580;50.850;4.504;2022-09-09T08:14:10;16.50;99.90
10192;DHT22;17580;50.850;4.504;2022-09-09T08:16:40;16.70;99.90
10192;DHT22;17580;50.850;4.504;2022-09-09T08:19:07;17.10;99.90
10192;DHT22;17580;50.850;4.504;2022-09-09T08:21:36;17.20;99.90
10192;DHT22;17580;50.850;4.504;2022-09-09T08:24:05;17.30;99.90
10192;DHT22;17580;50.850;4.504;2022-09-09T08:26:34;17.30;99.90
10192;DHT22;17580;50.850;4.504;2022-09-09T08:29:04;17.30;99.90
10192;DHT22;17580;50.850;4.504;2022-09-09T08:31:33;17.30;99.90
10192;DHT22;17580;50.850;4.504;2022-09-09T08:34:01;17.20;99.90
10192;DHT22;17580;50.850;4.504;2022-09-09T08:36:31;17.10;99.90
10192;DHT22;17580;50.850;4.504;2022-09-09T08:38:59;17.20;99.90
10192;DHT22;17580;50.850;4.504;2022-09-09T08:41:43;17.20;99.90
10192;DHT22;17580;50.850;4.504;2022-09-09T08:44:20;17.10;99.90
10192;DHT22;17580;50.850;4.504;2022-09-09T08:46:55;17.10;99.90
10192;DHT22;17580;50.850;4.504;2022-09-09T08:49:50;17.10;99.90
10192;DHT22;17580;50.850;4.504;2022-09-09T08:52:25;17.00;99.90
10192;DHT22;17580;50.850;4.504;2022-09-09T08:54:58;17.00;99.90
10192;DHT22;17580;50.850;4.504;2022-09-09T08:57:27;17.00;99.90
10192;DHT22;17580;50.850;4.504;2022-09-09T08:59:56;17.00;99.90
10192;DHT22;17580;50.850;4.504;2022-09-09T09:02:25;16.90;99.90
10192;DHT22;17580;50.850;4.504;2022-09-09T09:05:13;17.00;99.90
10192;DHT22;17580;50.850;4.504;2022-09-09T09:07:53;17.10;99.90
10192;DHT22;17580;50.850;4.504;2022-09-09T09:10:33;17.20;99.90
10192;DHT22;17580;50.850;4.504;2022-09-09T09:13:01;17.30;99.90
10192;DHT22;17580;50.850;4.504;2022-09-09T09:15:36;17.30;99.90
10192;DHT22;17580;50.850;4.504;2022-09-09T09:18:04;17.30;99.90
10192;DHT22;17580;50.850;4.504;2022-09-09T09:20:37;17.20;99.90
10192;DHT22;17580;50.850;4.504;2022-09-09T09:23:15;17.20;99.90
10192;DHT22;17580;50.850;4.504;2022-09-09T09:25:44;17.00;99.90
10192;DHT22;17580;50.850;4.504;2022-09-09T09:28:15;16.90;99.90
10192;DHT22;17580;50.850;4.504;2022-09-09T09:30:50;17.00;99.90
10192;DHT22;17580;50.850;4.504;2022-09-09T09:33:22;16.90;99.90
10192;DHT22;17580;50.850;4.504;2022-09-09T09:35:50;17.00;99.90
10192;DHT22;17580;50.850;4.504;2022-09-09T09:38:19;17.10;99.90
10192;DHT22;17580;50.850;4.504;2022-09-09T09:40:51;17.00;99.90
10192;DHT22;17580;50.850;4.504;2022-09-09T09:43:24;17.00;99.90
10192;DHT22;17580;50.850;4.504;2022-09-09T09:45:52;17.00;99.90
10192;DHT22;17580;50.850;4.504;2022-09-09T09:48:19;16.90;99.90
10192;DHT22;17580;50.850;4.504;2022-09-09T09:50:49;16.90;99.90
10192;DHT22;17580;50.850;4.504;2022-09-09T09:53:20;16.80;99.90
10192;DHT22;17580;50.850;4.504;2022-09-09T09:55:56;16.80;99.90
10192;DHT22;17580;50.850;4.504;2022-09-09T09:58:25;16.80;99.90
10192;DHT22;17580;50.850;4.504;2022-09-09T10:00:54;16.70;99.90
10192;DHT22;17580;50.850;4.504;2022-09-09T10:03:24;16.80;99.90
10192;DHT22;17580;50.850;4.504;2022-09-09T10:05:52;16.90;99.90
10192;DHT22;17580;50.850;4.504;2022-09-09T10:08:20;16.80;99.90
10192;DHT22;17580;50.850;4.504;2022-09-09T10:11:12;16.90;99.90
10192;DHT22;17580;50.850;4.504;2022-09-09T10:13:56;16.90;99.90
10192;DHT22;17580;50.850;4.504;2022-09-09T10:16:37;16.90;99.90
10192;DHT22;17580;50.850;4.504;2022-09-09T10:19:13;17.00;99.90
10192;DHT22;17580;50.850;4.504;2022-09-09T10:24:45;17.20;99.90
10192;DHT22;17580;50.850;4.504;2022-09-09T10:27:19;17.10;99.90
10192;DHT22;17580;50.850;4.504;2022-09-09T10:30:04;17.00;99.90
10192;DHT22;17580;50.850;4.504;2022-09-09T10:32:41;16.90;99.90
10192;DHT22;17580;50.850;4.504;2022-09-09T10:35:25;17.00;99.90
10192;DHT22;17580;50.850;4.504;2022-09-09T10:38:14;17.00;99.90
10192;DHT22;17580;50.850;4.504;2022-09-09T10:40:49;17.00;99.90
10192;DHT22;17580;50.850;4.504;2022-09-09T10:43:37;17.00;99.90
10192;DHT22;17580;50.850;4.504;2022-09-09T10:46:12;16.90;99.90
10192;DHT22;17580;50.850;4.504;2022-09-09T10:49:02;17.20;99.90
10192;DHT22;17580;50.850;4.504;2022-09-09T10:51:40;17.30;99.90
10192;DHT22;17580;50.850;4.504;2022-09-09T10:54:24;17.40;99.90
10192;DHT22;17580;50.850;4.504;2022-09-09T10:56:58;17.50;99.90
10192;DHT22;17580;50.850;4.504;2022-09-09T10:59:27;17.80;99.90
10192;DHT22;17580;50.850;4.504;2022-09-09T11:01:59;18.10;99.90
10192;DHT22;17580;50.850;4.504;2022-09-09T11:04:32;18.40;99.90
10192;DHT22;17580;50.850;4.504;2022-09-09T11:07:06;18.50;99.90
10192;DHT22;17580;50.850;4.504;2022-09-09T11:09:37;18.60;99.90
10192;DHT22;17580;50.850;4.504;2022-09-09T11:12:10;19.40;99.90
10192;DHT22;17580;50.850;4.504;2022-09-09T11:14:42;19.60;99.90
10192;DHT22;17580;50.850;4.504;2022-09-09T11:17:12;19.60;99.90
10192;DHT22;17580;50.850;4.504;2022-09-09T11:19:43;19.70;99.90
10192;DHT22;17580;50.850;4.504;2022-09-09T11:22:18;19.50;99.90
10192;DHT22;17580;50.850;4.504;2022-09-09T11:24:50;19.10;99.90
10192;DHT22;17580;50.850;4.504;2022-09-09T11:27:22;19.20;99.90
10192;DHT22;17580;50.850;4.504;2022-09-09T11:30:18;19.20;99.90
10192;DHT22;17580;50.850;4.504;2022-09-09T11:33:00;19.60;99.90
10192;DHT22;17580;50.850;4.504;2022-09-09T11:35:38;19.80;99.90
10192;DHT22;17580;50.850;4.504;2022-09-09T11:38:19;19.40;99.90
10192;DHT22;17580;50.850;4.504;2022-09-09T11:40:46;19.30;99.90
10192;DHT22;17580;50.850;4.504;2022-09-09T11:43:24;19.10;99.90
10192;DHT22;17580;50.850;4.504;2022-09-09T11:45:54;19.00;99.90
10192;DHT22;17580;50.850;4.504;2022-09-09T11:48:26;18.90;99.90
10192;DHT22;17580;50.850;4.504;2022-09-09T11:51:01;18.90;99.90
10192;DHT22;17580;50.850;4.504;2022-09-09T11:53:29;18.90;99.90
10192;DHT22;17580;50.850;4.504;2022-09-09T11:56:11;18.80;99.90
10192;DHT22;17580;50.850;4.504;2022-09-09T11:58:41;18.80;99.90
10192;DHT22;17580;50.850;4.504;2022-09-09T12:01:15;18.80;99.90
10192;DHT22;17580;50.850;4.504;2022-09-09T12:03:45;19.10;99.90
10192;DHT22;17580;50.850;4.504;2022-09-09T12:06:18;19.00;99.90
10192;DHT22;17580;50.850;4.504;2022-09-09T12:08:50;19.00;99.90
10192;DHT22;17580;50.850;4.504;2022-09-09T12:11:25;19.00;99.90
10192;DHT22;17580;50.850;4.504;2022-09-09T12:13:54;18.90;99.90
10192;DHT22;17580;50.850;4.504;2022-09-09T12:16:30;19.10;99.90
10192;DHT22;17580;50.850;4.504;2022-09-09T12:19:12;19.10;99.90
10192;DHT22;17580;50.850;4.504;2022-09-09T12:21:46;19.20;99.90
10192;DHT22;17580;50.850;4.504;2022-09-09T12:24:20;19.10;99.90
10192;DHT22;17580;50.850;4.504;2022-09-09T12:26:52;19.10;99.90
10192;DHT22;17580;50.850;4.504;2022-09-09T12:29:27;19.00;99.90
10192;DHT22;17580;50.850;4.504;2022-09-09T12:32:00;18.90;99.90
10192;DHT22;17580;50.850;4.504;2022-09-09T12:34:35;18.70;99.90
10192;DHT22;17580;50.850;4.504;2022-09-09T12:37:13;18.70;99.90
10192;DHT22;17580;50.850;4.504;2022-09-09T12:39:45;18.60;99.90
10192;DHT22;17580;50.850;4.504;2022-09-09T12:42:19;18.90;99.90
10192;DHT22;17580;50.850;4.504;2022-09-09T12:44:57;18.90;99.90
10192;DHT22;17580;50.850;4.504;2022-09-09T12:47:32;19.30;99.90
10192;DHT22;17580;50.850;4.504;2022-09-09T12:50:02;20.00;99.90
10192;DHT22;17580;50.850;4.504;2022-09-09T12:52:34;19.80;99.90
10192;DHT22;17580;50.850;4.504;2022-09-09T12:55:05;19.90;99.90
10192;DHT22;17580;50.850;4.504;2022-09-09T12:57:36;20.10;99.90
10192;DHT22;17580;50.850;4.504;2022-09-09T13:00:07;20.20;99.90
10192;DHT22;17580;50.850;4.504;2022-09-09T13:02:45;20.10;99.90
10192;DHT22;17580;50.850;4.504;2022-09-09T13:05:15;19.80;99.90
10192;DHT22;17580;50.850;4.504;2022-09-09T13:07:44;19.80;99.90
10192;DHT22;17580;50.850;4.504;2022-09-09T13:10:13;20.00;99.90
10192;DHT22;17580;50.850;4.504;2022-09-09T13:12:42;19.90;99.90
10192;DHT22;17580;50.850;4.504;2022-09-09T13:15:16;20.20;99.90
10192;DHT22;17580;50.850;4.504;2022-09-09T13:17:51;20.10;99.90
10192;DHT22;17580;50.850;4.504;2022-09-09T13:20:19;20.10;99.90
10192;DHT22;17580;50.850;4.504;2022-09-09T13:22:49;20.30;99.90
10192;DHT22;17580;50.850;4.504;2022-09-09T13:25:20;20.10;99.90
10192;DHT22;17580;50.850;4.504;2022-09-09T13:27:57;20.10;99.90
10192;DHT22;17580;50.850;4.504;2022-09-09T13:30:27;20.20;99.90
10192;DHT22;17580;50.850;4.504;2022-09-09T13:33:02;19.90;99.90
10192;DHT22;17580;50.850;4.504;2022-09-09T13:35:30;19.80;99.90
10192;DHT22;17580;50.850;4.504;2022-09-09T13:37:59;20.00;99.90
10192;DHT22;17580;50.850;4.504;2022-09-09T13:40:26;20.00;99.90
10192;DHT22;17580;50.850;4.504;2022-09-09T13:42:55;19.80;99.90
10192;DHT22;17580;50.850;4.504;2022-09-09T13:45:24;19.90;99.90
10192;DHT22;17580;50.850;4.504;2022-09-09T13:47:53;20.10;99.90
10192;DHT22;17580;50.850;4.504;2022-09-09T13:50:22;20.20;99.90
10192;DHT22;17580;50.850;4.504;2022-09-09T13:52:49;20.10;99.90
10192;DHT22;17580;50.850;4.504;2022-09-09T13:55:22;20.10;99.90
10192;DHT22;17580;50.850;4.504;2022-09-09T13:57:53;20.30;99.80
10192;DHT22;17580;50.850;4.504;2022-09-09T14:00:21;20.40;99.90
10192;DHT22;17580;50.850;4.504;2022-09-09T14:02:50;20.80;97.90
10192;DHT22;17580;50.850;4.504;2022-09-09T14:05:19;20.90;93.10
10192;DHT22;17580;50.850;4.504;2022-09-09T14:07:46;20.50;94.30
10192;DHT22;17580;50.850;4.504;2022-09-09T14:10:13;20.20;99.40
10192;DHT22;17580;50.850;4.504;2022-09-09T14:12:41;20.10;99.90
10192;DHT22;17580;50.850;4.504;2022-09-09T14:15:11;20.00;99.90
10192;DHT22;17580;50.850;4.504;2022-09-09T14:17:38;20.00;99.90
10192;DHT22;17580;50.850;4.504;2022-09-09T14:20:07;20.40;99.10
10192;DHT22;17580;50.850;4.504;2022-09-09T14:22:34;20.30;99.90
10192;DHT22;17580;50.850;4.504;2022-09-09T14:25:01;20.40;99.90
10192;DHT22;17580;50.850;4.504;2022-09-09T14:27:28;20.50;99.90
10192;DHT22;17580;50.850;4.504;2022-09-09T14:29:57;20.50;99.10
10192;DHT22;17580;50.850;4.504;2022-09-09T14:32:25;20.20;99.80
10192;DHT22;17580;50.850;4.504;2022-09-09T14:34:52;20.10;99.90
10192;DHT22;17580;50.850;4.504;2022-09-09T14:37:19;19.90;99.90
10192;DHT22;17580;50.850;4.504;2022-09-09T14:39:47;20.00;99.90
10192;DHT22;17580;50.850;4.504;2022-09-09T14:42:16;20.00;99.90
10192;DHT22;17580;50.850;4.504;2022-09-09T14:44:42;19.90;99.90
10192;DHT22;17580;50.850;4.504;2022-09-09T14:47:11;20.10;99.90
10192;DHT22;17580;50.850;4.504;2022-09-09T14:49:38;20.40;99.90
10192;DHT22;17580;50.850;4.504;2022-09-09T14:52:05;20.40;99.90
10192;DHT22;17580;50.850;4.504;2022-09-09T14:54:32;20.50;99.90
10192;DHT22;17580;50.850;4.504;2022-09-09T14:56:59;20.30;99.90
10192;DHT22;17580;50.850;4.504;2022-09-09T14:59:26;20.30;99.90
10192;DHT22;17580;50.850;4.504;2022-09-09T15:01:53;20.40;99.90
10192;DHT22;17580;50.850;4.504;2022-09-09T15:04:21;20.40;99.90
10192;DHT22;17580;50.850;4.504;2022-09-09T15:06:48;20.30;99.90
10192;DHT22;17580;50.850;4.504;2022-09-09T15:09:17;20.30;99.90
10192;DHT22;17580;50.850;4.504;2022-09-09T15:11:44;20.30;99.90
10192;DHT22;17580;50.850;4.504;2022-09-09T15:14:11;20.30;95.80
10192;DHT22;17580;50.850;4.504;2022-09-09T15:16:39;20.10;94.70
10192;DHT22;17580;50.850;4.504;2022-09-09T15:19:06;20.20;99.40
10192;DHT22;17580;50.850;4.504;2022-09-09T15:21:36;20.30;94.40
10192;DHT22;17580;50.850;4.504;2022-09-09T15:24:04;20.40;93.30
10192;DHT22;17580;50.850;4.504;2022-09-09T15:26:32;20.30;94.40
10192;DHT22;17580;50.850;4.504;2022-09-09T15:29:00;20.50;94.60
10192;DHT22;17580;50.850;4.504;2022-09-09T15:31:28;20.70;93.60
10192;DHT22;17580;50.850;4.504;2022-09-09T15:33:57;20.50;93.90
10192;DHT22;17580;50.850;4.504;2022-09-09T15:36:27;20.40;96.60
10192;DHT22;17580;50.850;4.504;2022-09-09T15:38:57;20.40;98.90
10192;DHT22;17580;50.850;4.504;2022-09-09T15:41:25;20.30;98.50
10192;DHT22;17580;50.850;4.504;2022-09-09T15:43:54;20.10;99.90
10192;DHT22;17580;50.850;4.504;2022-09-09T15:46:25;20.00;99.90
10192;DHT22;17580;50.850;4.504;2022-09-09T15:48:54;20.00;99.90
10192;DHT22;17580;50.850;4.504;2022-09-09T15:51:22;20.00;99.90
10192;DHT22;17580;50.850;4.504;2022-09-09T15:53:55;19.70;99.90
10192;DHT22;17580;50.850;4.504;2022-09-09T15:56:23;19.80;99.90